Arlington, Nebraska
Current Conditions -  °F | °C
As of 7:35 PM on Tuesday 25 Nov 2014 (Local Time) from KFET Reporting Station
Overcast Overcast  
Wind Chill: 39°   Ceiling: 3900
Heat Index: 43°   Visibility: 10mi
Dew Point: 27°   Wind: 6mph
Humidity: 55%   Direction: 170°S
Pressure: 29.9"   Gusts: NA
Location:  41.45°N, 96.35°W
Report Text: KFET 260135Z AUTO 17005KT 10SM SCT033 BKN039 OVC050 06/M03 A2990 RMK AO2 T00591026
Loading
Personal Weather Stations






























Interactive Weather Map New forecast layout! Learn more

10-Day Weather Forecast

Advertisements
Track Severe Weather on mobile